• Join FlightAware (Why Join?)
  • Login
  • US Flag 
03:26AM EDT


 

Airport Tracker/Info


-or-


 

Live Flight TrackerFlight Track Log ✈ KAL366 ✈ 20-Jul-2014 ✈ VVTS / SGN - RKSI / ICN

Flight Track Log - Related Links

Times and Time Zones

All times are in EDT time to prevent confusion due to time zone crossing. See the KAL366 flight status page for this flight to view local times or setup timezone preferences in your user account.

Time Position Orientation Groundspeed Altitude Reporting Facility
EDT Latitude Longitude Course Direction KTS MPH feet Rate Location/Type
12:35AM 10.9127 106.7081 30° Northeast  Level Estimated
12:35AM 10.8225 106.6665 249° West 179 206 400  Level FlightAware ADS-B (VVTS / SGN)
12:36AM 10.8110 106.6370 248° West 181 208 600 1,500 Climbing FlightAware ADS-B
12:36AM 10.8096 106.6331 248° West 182 209 700 1,800 Climbing FlightAware ADS-B (VVTS / SGN)
12:36AM 10.8050 106.6220 246° West 185 213 1,200 2,220 Climbing FlightAware ADS-B
12:36AM 10.8040 106.6204 247° West 185 213 1,300 2,100 Climbing FlightAware ADS-B (VVTS / SGN)
12:36AM 10.7990 106.6100 248° West 188 216 1,800 1,980 Climbing FlightAware ADS-B
12:36AM 10.7981 106.6066 248° West 187 215 1,900 1,980 Climbing FlightAware ADS-B (VVTS / SGN)
12:36AM 10.7934 106.5951 248° West 188 216 2,300 1,860 Climbing FlightAware ADS-B (VVTS / SGN)
12:36AM 10.7930 106.5930 248° West 189 217 2,400 1,560 Climbing FlightAware ADS-B
12:37AM 10.7885 106.5837 248° West 189 217 2,700 1,500 Climbing FlightAware ADS-B (VVTS / SGN)
12:37AM 10.7880 106.5820 251° West 189 217 2,800 1,500 Climbing FlightAware ADS-B
12:37AM 10.7862 106.5733 268° West 191 220 3,000 1,980 Climbing FlightAware ADS-B (VVTS / SGN)
12:37AM 10.7864 106.5697 279° West 192 221 3,200 1,980 Climbing FlightAware ADS-B (VVTS / SGN)
12:37AM 10.7870 106.5690 277° West 193 222 3,200  Level FlightAware ADS-B
12:37AM 10.7872 106.5662 287° West 193 222 3,200 960 Level FlightAware ADS-B (VVTS / SGN)
12:37AM 10.7890 106.5630 290° West 195 224 3,300 1,200 Climbing FlightAware ADS-B
12:37AM 10.7920 106.5580 313° West 202 232 3,400 840 Climbing FlightAware ADS-B
12:37AM 10.7925 106.5575 315° West 202 232 3,400 1,500 Level FlightAware ADS-B (VVTS / SGN)
12:37AM 10.7956 106.5551 326° Northwest 207 238 3,500 1,200 Climbing FlightAware ADS-B (VVTS / SGN)
12:37AM 10.7970 106.5550 328° Northwest 209 241 3,500 840 Level FlightAware ADS-B
12:37AM 10.8022 106.5521 343° North 215 247 3,600 960 Climbing FlightAware ADS-B (VVTS / SGN)
12:37AM 10.8010 106.5520 342° North 216 249 3,600 1,500 Level FlightAware ADS-B
12:37AM 10.8052 106.5514 351° North 220 253 3,700 960 Climbing FlightAware ADS-B (VVTS / SGN)
12:37AM 10.8080 106.5510 358° North 224 258 3,700 1,200 Level FlightAware ADS-B
12:37AM 10.8102 106.5511 North 226 260 3,800 960 Climbing FlightAware ADS-B (VVTS / SGN)
12:38AM 10.8150 106.5520 10° North 233 268 3,800 1,200 Level FlightAware ADS-B
12:38AM 10.8158 106.5519 14° North 234 269 3,900 960 Climbing FlightAware ADS-B (VVTS / SGN)
12:38AM 10.8210 106.5540 22° Northeast 241 277 3,900 600 Level FlightAware ADS-B
12:38AM 10.8266 106.5569 29° Northeast 247 284 4,000 960 Climbing FlightAware ADS-B (VVTS / SGN)
12:38AM 10.8270 106.5570 29° Northeast 248 285 4,000 960 Level FlightAware ADS-B
12:38AM 10.8316 106.5603 37° Northeast 257 296 4,100 960 Climbing FlightAware ADS-B (VVTS / SGN)
12:38AM 10.8330 106.5610 38° Northeast 259 298 4,100 780 Level FlightAware ADS-B
12:38AM 10.8461 106.5732 40° Northeast 272 313 4,300 1,020 Climbing FlightAware ADS-B (VVTS / SGN)
12:38AM 10.8490 106.5750 40° Northeast 273 314 4,400 1,080 Climbing FlightAware ADS-B
12:38AM 10.8610 106.5861 40° Northeast 286 329 4,600 900 Climbing FlightAware ADS-B (VVTS / SGN)
12:38AM 10.8670 106.5910 40° Northeast 293 337 4,700 1,500 Climbing FlightAware ADS-B
12:39AM 10.8750 106.5977 40° Northeast 297 342 4,900 1,980 Climbing FlightAware ADS-B (VVTS / SGN)
12:39AM 10.8870 106.6080 41° Northeast 301 346 5,300 2,100 Climbing FlightAware ADS-B
12:39AM 10.8922 106.6127 41° Northeast 303 349 5,500 2,160 Climbing FlightAware ADS-B (VVTS / SGN)
12:39AM 10.9070 106.6260 40° Northeast 307 353 6,000 2,400 Climbing FlightAware ADS-B
12:39AM 10.9085 106.6268 40° Northeast 307 353 6,100 2,400 Climbing FlightAware ADS-B (VVTS / SGN)
12:39AM 10.9236 106.6401 40° Northeast 309 356 6,600 2,220 Climbing FlightAware ADS-B (VVTS / SGN)
12:39AM 10.9260 106.6420 40° Northeast 310 357 6,700 2,580 Climbing FlightAware ADS-B
12:40AM 10.9411 106.6554 40° Northeast 312 359 7,300 2,280 Climbing FlightAware ADS-B (VVTS / SGN)
12:40AM 10.9460 106.6600 40° Northeast 314 361 7,400 2,100 Climbing FlightAware ADS-B
12:40AM 10.9574 106.6698 40° Northeast 315 362 7,800 2,160 Climbing FlightAware ADS-B (VVTS / SGN)
12:40AM 10.9660 106.6780 40° Northeast 316 364 8,100 2,520 Climbing FlightAware ADS-B
12:40AM 10.9737 106.6833 39° Northeast 315 362 8,400 2,460 Climbing FlightAware ADS-B (VVTS / SGN)
12:40AM 10.9860 106.6940 39° Northeast 317 365 8,800 2,460 Climbing FlightAware ADS-B
12:40AM 10.9927 106.6994 39° Northeast 317 365 9,100 2,640 Climbing FlightAware ADS-B (VVTS / SGN)
12:41AM 11.0070 106.7110 38° Northeast 317 365 9,600 2,220 Climbing FlightAware ADS-B
12:41AM 11.0099 106.7135 38° Northeast 317 365 9,700 1,920 Climbing FlightAware ADS-B (VVTS / SGN)
12:41AM 11.0433 106.7411 38° Northeast 331 381 10,600 1,800 Climbing FlightAware ADS-B (VVTS / SGN)
12:41AM 11.0490 106.7450 38° Northeast 333 383 10,700 1,200 Climbing FlightAware ADS-B
12:41AM 11.0734 106.7650 38° Northeast 346 398 11,100 1,140 Climbing FlightAware ADS-B (VVTS / SGN)
12:42AM 11.0930 106.7810 38° Northeast 363 418 11,400 1,140 Climbing FlightAware ADS-B
12:42AM 11.1169 106.7988 38° Northeast 375 432 11,800 1,260 Climbing FlightAware ADS-B (VVTS / SGN)
12:42AM 11.1330 106.8120 37° Northeast 386 444 12,000 1,500 Climbing FlightAware ADS-B
12:43AM 11.1728 106.8428 37° Northeast 395 455 12,700 1,680 Climbing FlightAware ADS-B (VVTS / SGN)
12:43AM 11.1880 106.8550 38° Northeast 404 465 13,100 2,220 Climbing FlightAware ADS-B
12:43AM 11.2149 106.8772 37° Northeast 395 455 13,800 2,160 Climbing FlightAware ADS-B (VVTS / SGN)
12:43AM 11.2330 106.8920 38° Northeast 414 476 14,200 2,100 Climbing FlightAware ADS-B
12:44AM 11.2790 106.9280 37° Northeast 423 487 15,300 2,040 Climbing FlightAware ADS-B
12:44AM 11.3370 106.9720 37° Northeast 434 499 16,500 1,860 Climbing FlightAware ADS-B
12:45AM 11.3830 107.0080 36° Northeast 443 510 17,400 1,920 Climbing FlightAware ADS-B
12:46AM 11.4470 107.0560 35° Northeast 453 521 18,600 1,860 Climbing FlightAware ADS-B
12:46AM 11.4980 107.0920 35° Northeast 457 526 19,500 1,860 Climbing FlightAware ADS-B
12:47AM 11.5610 107.1360 34° Northeast 464 534 20,700 2,040 Climbing FlightAware ADS-B
12:47AM 11.6130 107.1720 35° Northeast 463 533 21,800 2,100 Climbing FlightAware ADS-B
12:48AM 11.6650 107.2100 35° Northeast 462 532 22,800 1,800 Climbing FlightAware ADS-B
12:48AM 11.7310 107.2570 35° Northeast 469 540 23,800 1,620 Climbing FlightAware ADS-B
12:49AM 11.7820 107.2940 35° Northeast 471 542 24,600 1,560 Climbing FlightAware ADS-B
12:49AM 11.8460 107.3410 34° Northeast 474 545 25,500 1,500 Climbing FlightAware ADS-B
12:50AM 11.9040 107.3800 34° Northeast 479 551 26,300 1,380 Climbing FlightAware ADS-B
12:50AM 11.9480 107.4090 26° Northeast 483 556 26,800 1,320 Climbing FlightAware ADS-B
12:51AM 12.0110 107.4370 23° Northeast 485 558 27,500 1,140 Climbing FlightAware ADS-B
12:51AM 12.0840 107.4710 23° Northeast 494 568 28,100 1,080 Climbing FlightAware ADS-B
12:52AM 12.1480 107.4990 22° Northeast 498 573 28,700 1,260 Climbing FlightAware ADS-B
12:52AM 12.2110 107.5260 23° Northeast 496 571 29,400 1,500 Climbing FlightAware ADS-B
12:53AM 12.2850 107.5580 23° Northeast 492 566 30,400 1,620 Climbing FlightAware ADS-B
12:53AM 12.3500 107.5850 22° Northeast 490 564 31,200 1,440 Climbing FlightAware ADS-B
12:54AM 12.4270 107.6190 23° Northeast 488 562 32,000 1,320 Climbing FlightAware ADS-B
12:55AM 12.4890 107.6460 23° Northeast 485 558 32,700 960 Climbing FlightAware ADS-B
12:55AM 12.5480 107.6720 22° Northeast 485 558 33,000 300 Climbing FlightAware ADS-B
12:56AM 12.6040 107.6960 22° Northeast 481 554 33,000  Level FlightAware ADS-B
12:56AM 12.6820 107.7290 23° Northeast 480 552 33,000  Level FlightAware ADS-B
12:57AM 12.7510 107.7700 33° Northeast 477 549 33,000  Level FlightAware ADS-B
12:57AM 12.7930 107.8070 44° Northeast 475 547 33,000  Level FlightAware ADS-B
12:58AM 12.8350 107.8500 45° Northeast 475 547 33,000  Level FlightAware ADS-B
12:58AM 12.8910 107.9080 46° Northeast 476 548 33,000  Level FlightAware ADS-B
12:59AM 12.9520 107.9730 46° Northeast 477 549 33,000 -60 Level FlightAware ADS-B
01:01AM 13.1171 108.0735 31° Northeast  Level Estimated
01:02AM 13.2151 108.1333 31° Northeast  Level Estimated
01:03AM 13.3131 108.1931 31° Northeast  Level Estimated
01:04AM 13.4111 108.2530 31° Northeast  Level Estimated
01:05AM 13.5091 108.3129 31° Northeast  Level Estimated
01:06AM 13.6071 108.3729 31° Northeast  Level Estimated
01:07AM 13.7051 108.4330 31° Northeast  Level Estimated
01:08AM 13.8030 108.4930 31° Northeast  Level Estimated
01:09AM 13.9010 108.5531 31° Northeast  Level Estimated
01:10AM 13.9989 108.6133 31° Northeast  Level Estimated
01:11AM 14.0968 108.6736 31° Northeast  Level Estimated
01:12AM 14.1947 108.7338 31° Northeast  Level Estimated
01:13AM 14.2925 108.7942 31° Northeast  Level Estimated
01:14AM 14.3904 108.8546 31° Northeast  Level Estimated
01:15AM 14.4882 108.9150 31° Northeast  Level Estimated
01:16AM 14.5861 108.9755 31° Northeast  Level Estimated
01:17AM 14.6839 109.0360 31° Northeast  Level Estimated
01:18AM 14.7817 109.0966 31° Northeast  Level Estimated
01:19AM 14.8795 109.1573 31° Northeast  Level Estimated
01:20AM 14.9772 109.2180 31° Northeast  Level Estimated
01:21AM 15.0750 109.2788 31° Northeast  Level Estimated
01:22AM 15.1727 109.3396 31° Northeast  Level Estimated
01:23AM 15.2704 109.4005 31° Northeast  Level Estimated
01:24AM 15.3681 109.4614 31° Northeast  Level Estimated
01:25AM 15.4658 109.5224 31° Northeast  Level Estimated
01:26AM 15.5635 109.5834 31° Northeast  Level Estimated
01:27AM 15.6611 109.6445 31° Northeast  Level Estimated
01:28AM 15.7588 109.7057 31° Northeast  Level Estimated
01:29AM 15.8564 109.7669 31° Northeast  Level Estimated
01:30AM 15.9540 109.8282 31° Northeast  Level Estimated
01:31AM 16.0516 109.8895 31° Northeast  Level Estimated
01:32AM 16.1492 109.9510 31° Northeast  Level Estimated
01:33AM 16.2467 110.0124 31° Northeast  Level Estimated
01:34AM 16.3442 110.0739 31° Northeast  Level Estimated
01:35AM 16.4417 110.1355 31° Northeast  Level Estimated
01:36AM 16.5392 110.1972 31° Northeast  Level Estimated
01:37AM 16.6367 110.2589 31° Northeast  Level Estimated
01:38AM 16.7342 110.3206 31° Northeast  Level Estimated
01:39AM 16.8316 110.3825 31° Northeast  Level Estimated
01:40AM 16.9290 110.4444 31° Northeast  Level Estimated
01:41AM 17.0264 110.5063 31° Northeast  Level Estimated
01:42AM 17.1238 110.5684 31° Northeast  Level Estimated
01:43AM 17.2212 110.6305 31° Northeast  Level Estimated
01:44AM 17.3185 110.6926 31° Northeast  Level Estimated
01:45AM 17.4159 110.7549 31° Northeast  Level Estimated
01:46AM 17.5132 110.8171 31° Northeast  Level Estimated
01:47AM 17.6105 110.8795 31° Northeast  Level Estimated
01:48AM 17.7077 110.9419 31° Northeast  Level Estimated
01:49AM 17.8050 111.0044 31° Northeast  Level Estimated
01:50AM 17.9022 111.0670 31° Northeast  Level Estimated
01:51AM 17.9994 111.1296 31° Northeast  Level Estimated
01:52AM 18.0966 111.1923 32° Northeast  Level Estimated
01:53AM 18.1938 111.2551 32° Northeast  Level Estimated
01:54AM 18.2909 111.3179 32° Northeast  Level Estimated
01:55AM 18.3881 111.3808 32° Northeast  Level Estimated
01:56AM 18.4851 111.4438 32° Northeast  Level Estimated
01:57AM 18.5822 111.5069 32° Northeast  Level Estimated
01:58AM 18.6793 111.5700 32° Northeast  Level Estimated
01:59AM 18.7764 111.6332 32° Northeast  Level Estimated
02:00AM 18.8734 111.6964 32° Northeast  Level Estimated
02:01AM 18.9704 111.7598 32° Northeast  Level Estimated
02:02AM 19.0674 111.8232 32° Northeast  Level Estimated
02:03AM 19.1643 111.8867 32° Northeast  Level Estimated
02:04AM 19.2612 111.9502 32° Northeast  Level Estimated
02:05AM 19.3582 112.0139 32° Northeast  Level Estimated
02:06AM 19.4550 112.0776 32° Northeast  Level Estimated
02:07AM 19.5519 112.1414 32° Northeast  Level Estimated
02:08AM 19.6488 112.2053 32° Northeast  Level Estimated
02:09AM 19.7456 112.2692 32° Northeast  Level Estimated
02:10AM 19.8424 112.3332 32° Northeast  Level Estimated
02:11AM 19.9392 112.3973 32° Northeast  Level Estimated
02:12AM 20.0359 112.4615 32° Northeast  Level Estimated
02:13AM 20.1327 112.5258 32° Northeast  Level Estimated
02:14AM 20.2294 112.5901 32° Northeast  Level Estimated
02:15AM 20.3261 112.6545 32° Northeast  Level Estimated
02:16AM 20.4227 112.7190 32° Northeast  Level Estimated
02:17AM 20.5194 112.7836 32° Northeast  Level Estimated
02:18AM 20.6160 112.8483 32° Northeast  Level Estimated
02:19AM 20.7126 112.9130 32° Northeast  Level Estimated
02:20AM 20.8091 112.9778 32° Northeast  Level Estimated
02:21AM 20.9057 113.0427 32° Northeast  Level Estimated
02:22AM 21.0022 113.1077 32° Northeast  Level Estimated
02:23AM 21.0987 113.1728 32° Northeast  Level Estimated
02:24AM 21.1952 113.2380 32° Northeast  Level Estimated
02:25AM 21.2916 113.3032 32° Northeast  Level Estimated
02:26AM 21.3880 113.3686 32° Northeast  Level Estimated
02:27AM 21.4844 113.4340 32° Northeast  Level Estimated
02:28AM 21.5808 113.4995 32° Northeast  Level Estimated
02:29AM 21.6771 113.5651 32° Northeast  Level Estimated
02:30AM 21.7734 113.6307 32° Northeast  Level Estimated
02:31AM 21.8697 113.6965 32° Northeast  Level Estimated
02:32AM 21.9660 113.7624 32° Northeast  Level Estimated
02:33AM 22.0622 113.8283 32° Northeast  Level Estimated
02:34AM 22.1584 113.8943 32° Northeast  Level Estimated
02:35AM 22.2546 113.9605 32° Northeast  Level Estimated
02:36AM 22.3508 114.0267 32° Northeast  Level Estimated
02:37AM 22.4469 114.0930 33° Northeast  Level Estimated
02:38AM 22.5430 114.1594 33° Northeast  Level Estimated
02:39AM 22.6391 114.2259 33° Northeast  Level Estimated
02:40AM 22.7351 114.2925 33° Northeast  Level Estimated
02:41AM 22.8312 114.3592 33° Northeast  Level Estimated
02:42AM 22.9271 114.4259 33° Northeast  Level Estimated
02:43AM 23.0231 114.4928 33° Northeast  Level Estimated
02:44AM 23.1190 114.5598 33° Northeast  Level Estimated
02:45AM 23.2150 114.6268 33° Northeast  Level Estimated
02:46AM 23.3108 114.6940 33° Northeast  Level Estimated
02:47AM 23.4067 114.7612 33° Northeast  Level Estimated
02:48AM 23.5025 114.8286 33° Northeast  Level Estimated
02:49AM 23.5983 114.8960 33° Northeast  Level Estimated
02:50AM 23.6941 114.9636 33° Northeast  Level Estimated
02:51AM 23.7898 115.0312 33° Northeast  Level Estimated
02:52AM 23.8855 115.0990 33° Northeast  Level Estimated
02:53AM 23.9812 115.1668 33° Northeast  Level Estimated
02:54AM 24.0768 115.2348 33° Northeast  Level Estimated
02:55AM 24.1724 115.3028 33° Northeast  Level Estimated
02:56AM 24.2680 115.3710 33° Northeast  Level Estimated
02:57AM 24.3636 115.4392 33° Northeast  Level Estimated
02:58AM 24.4591 115.5076 33° Northeast  Level Estimated
02:59AM 24.5546 115.5760 33° Northeast  Level Estimated
03:00AM 24.6501 115.6446 33° Northeast  Level Estimated
03:01AM 24.7455 115.7133 33° Northeast  Level Estimated
03:02AM 24.8409 115.7820 33° Northeast  Level Estimated
03:03AM 24.9363 115.8509 33° Northeast  Level Estimated
03:04AM 25.0316 115.9199 33° Northeast  Level Estimated
03:05AM 25.1269 115.9890 33° Northeast  Level Estimated
03:06AM 25.2222 116.0582 33° Northeast  Level Estimated
03:07AM 25.3174 116.1275 33° Northeast  Level Estimated
03:08AM 25.4126 116.1969 33° Northeast  Level Estimated
03:09AM 25.5078 116.2665 33° Northeast  Level Estimated
03:10AM 25.6029 116.3361 33° Northeast  Level Estimated
03:11AM 25.6981 116.4059 33° Northeast  Level Estimated
03:12AM 25.7931 116.4757 33° Northeast  Level Estimated
03:13AM 25.8882 116.5457 34° Northeast  Level Estimated
03:14AM 25.9832 116.6158 34° Northeast  Level Estimated
03:15AM 26.0782 116.6860 34° Northeast  Level Estimated
03:16AM 26.1731 116.7563 34° Northeast  Level Estimated
03:17AM 26.2680 116.8267 34° Northeast  Level Estimated
03:18AM 26.3629 116.8973 34° Northeast  Level Estimated
03:19AM 26.4577 116.9679 34° Northeast  Level Estimated
03:20AM 26.5525 117.0387 34° Northeast  Level Estimated
03:21AM 26.6473 117.1096 34° Northeast  Level Estimated
03:22AM 26.7420 117.1806 34° Northeast  Level Estimated
03:23AM 26.8367 117.2517 34° Northeast  Level Estimated
03:24AM 26.9314 117.3230 34° Northeast  Level Estimated
03:25AM 27.0260 117.3943 34° Northeast  Level Estimated
03:26AM 27.1206 117.4658 34° Northeast  Level Estimated
03:27AM 27.2152 117.5375 34° Northeast  Level Estimated
03:28AM 27.3097 117.6092 34° Northeast  Level Estimated
03:29AM 27.4042 117.6810 34° Northeast  Level Estimated
03:30AM 27.4986 117.7530 34° Northeast  Level Estimated
03:31AM 27.5930 117.8251 34° Northeast  Level Estimated
03:32AM 27.6874 117.8973 34° Northeast  Level Estimated
03:33AM 27.7817 117.9697 34° Northeast  Level Estimated
03:34AM 27.8760 118.0422 34° Northeast  Level Estimated
03:35AM 27.9703 118.1148 34° Northeast  Level Estimated
03:36AM 28.0645 118.1875 34° Northeast  Level Estimated
03:37AM 28.1587 118.2603 34° Northeast  Level Estimated
03:38AM 28.2528 118.3333 34° Northeast  Level Estimated
03:39AM 28.3469 118.4064 34° Northeast  Level Estimated
03:40AM 28.4410 118.4797 34° Northeast  Level Estimated
03:41AM 28.5350 118.5531 34° Northeast  Level Estimated
03:42AM 28.6290 118.6266 34° Northeast  Level Estimated
03:43AM 28.7229 118.7002 34° Northeast  Level Estimated
03:44AM 28.8168 118.7740 35° Northeast  Level Estimated
03:45AM 28.9107 118.8479 35° Northeast  Level Estimated
03:46AM 29.0045 118.9219 35° Northeast  Level Estimated
03:47AM 29.0983 118.9961 35° Northeast  Level Estimated
03:48AM 29.1921 119.0704 35° Northeast  Level Estimated
03:49AM 29.2858 119.1448 35° Northeast  Level Estimated
03:50AM 29.3794 119.2194 35° Northeast  Level Estimated
03:51AM 29.4730 119.2941 35° Northeast  Level Estimated
03:52AM 29.5666 119.3690 35° Northeast  Level Estimated
03:53AM 29.6602 119.4439 35° Northeast  Level Estimated
03:54AM 29.7537 119.5191 35° Northeast  Level Estimated
03:55AM 29.8471 119.5944 35° Northeast  Level Estimated
03:56AM 29.9405 119.6698 35° Northeast  Level Estimated
03:57AM 30.0339 119.7453 35° Northeast  Level Estimated
03:58AM 30.1272 119.8210 35° Northeast  Level Estimated
03:59AM 30.2205 119.8969 35° Northeast  Level Estimated
04:00AM 30.3137 119.9728 35° Northeast  Level Estimated
04:01AM 30.4069 120.0490 35° Northeast  Level Estimated
04:02AM 30.5000 120.1253 35° Northeast  Level Estimated
04:03AM 30.5931 120.2017 35° Northeast  Level Estimated
04:04AM 30.6862 120.2782 35° Northeast  Level Estimated
04:05AM 30.7792 120.3549 35° Northeast  Level Estimated
04:06AM 30.8722 120.4318 35° Northeast  Level Estimated
04:07AM 30.9651 120.5088 35° Northeast  Level Estimated
04:08AM 31.0580 120.5860 35° Northeast  Level Estimated
04:09AM 31.1508 120.6633 35° Northeast  Level Estimated
04:10AM 31.2436 120.7408 36° Northeast  Level Estimated
04:11AM 31.3363 120.8184 36° Northeast  Level Estimated
04:12AM 31.4290 120.8961 36° Northeast  Level Estimated
04:13AM 31.5217 120.9741 36° Northeast  Level Estimated
04:14AM 31.6143 121.0522 36° Northeast  Level Estimated
04:15AM 31.7068 121.1304 36° Northeast  Level Estimated
04:16AM 31.7993 121.2088 36° Northeast  Level Estimated
04:17AM 31.8918 121.2873 36° Northeast  Level Estimated
04:18AM 31.9841 121.3660 36° Northeast  Level Estimated
04:19AM 32.0765 121.4449 36° Northeast  Level Estimated
04:20AM 32.1688 121.5239 36° Northeast  Level Estimated
04:21AM 32.2611 121.6031 36° Northeast  Level Estimated
04:22AM 32.3533 121.6824 36° Northeast  Level Estimated
04:23AM 32.4454 121.7620 36° Northeast  Level Estimated
04:24AM 32.5375 121.8416 36° Northeast  Level Estimated
04:25AM 32.6296 121.9215 36° Northeast  Level Estimated
04:26AM 32.7216 122.0015 36° Northeast  Level Estimated
04:27AM 32.8136 122.0816 36° Northeast  Level Estimated
04:28AM 32.9055 122.1619 36° Northeast  Level Estimated
04:29AM 32.9973 122.2424 36° Northeast  Level Estimated
04:30AM 33.0891 122.3231 36° Northeast  Level Estimated
04:31AM 33.1809 122.4039 36° Northeast  Level Estimated
04:32AM 33.2726 122.4849 36° Northeast  Level Estimated
04:33AM 33.3642 122.5661 36° Northeast  Level Estimated
04:34AM 33.4558 122.6475 37° Northeast  Level Estimated
04:35AM 33.5473 122.7290 37° Northeast  Level Estimated
04:36AM 33.6388 122.8107 37° Northeast  Level Estimated
04:36AM 34.1211 126.7578 37° Northeast 35,000  Level FlightAware ADS-B (RKSO / OSN)
04:37AM 33.7303 122.8925 37° Northeast  Level Estimated
04:38AM 33.8216 122.9746 37° Northeast  Level Estimated
04:39AM 33.9129 123.0568 37° Northeast  Level Estimated
04:39AM 34.3979 126.7869 North 444 511 32,900  Level FlightAware ADS-B (RKSO / OSN)
04:39AM 34.4803 126.7957 North 431 496 32,200 -1,020 Descending FlightAware ADS-B (RKSO / OSN)
04:40AM 34.5635 126.8046 North 432 497 31,600 -1,020 Descending FlightAware ADS-B (RKSO / OSN)
04:41AM 34.7189 126.8214 North 434 499 30,300 -1,020 Descending FlightAware ADS-B (RKSO / OSN)
04:42AM 34.8028 126.8303 North 440 506 29,600 -840 Descending FlightAware ADS-B (RKSO / OSN)
04:43AM 34.8855 126.8390 North 431 496 29,200 -480 Descending FlightAware ADS-B (RKSO / OSN)
04:43AM 34.9638 126.8477 North 432 497 29,000 -180 Descending FlightAware ADS-B (RKSO / OSN)
04:44AM 35.0401 126.8558 North 432 497 29,000  Level FlightAware ADS-B (RKSO / OSN)
04:45AM 35.1232 126.8650 North 432 497 29,000  Level FlightAware ADS-B (RKSO / OSN)
04:45AM 35.2042 126.8736 North 432 497 29,000  Level FlightAware ADS-B (RKSO / OSN)
04:46AM 35.2838 126.8823 North 432 497 29,000  Level FlightAware ADS-B (RKSO / OSN)
04:47AM 35.3634 126.8908 North 432 497 29,000  Level FlightAware ADS-B (RKSO / OSN)
04:47AM 35.4406 126.8992 North 431 496 29,000  Level FlightAware ADS-B (RKSO / OSN)
04:48AM 35.5219 126.9082 North 432 497 29,000  Level FlightAware ADS-B (RKSO / OSN)
04:49AM 35.6030 126.9169 North 432 497 29,000  Level FlightAware ADS-B (RKSO / OSN)
04:49AM 35.6823 126.9257 North 432 497 29,000 -420 Level FlightAware ADS-B (RKSO / OSN)
04:50AM 35.7521 126.9336 North 436 502 28,500 -840 Descending FlightAware ADS-B (RKSO / OSN)
04:51AM 35.8412 126.9433 North 424 488 27,900 -1,020 Descending FlightAware ADS-B (RKSO / OSN)
04:51AM 35.9117 126.9510 North 421 484 27,200 -1,080 Descending FlightAware ADS-B (RKSO / OSN)
04:52AM 35.9956 126.9605 North 416 479 26,500 -1,020 Descending FlightAware ADS-B (RKSO / OSN)
04:53AM 36.0669 126.9681 North 410 472 25,900 -1,020 Descending FlightAware ADS-B (RKSO / OSN)
04:53AM 36.1473 126.9771 North 406 467 25,200 -1,320 Descending FlightAware ADS-B (RKSO / OSN)
04:54AM 36.2211 126.9852 North 391 450 24,200 -1,500 Descending FlightAware ADS-B (RKSO / OSN)
04:55AM 36.2937 126.9934 North 385 443 23,200 -1,500 Descending FlightAware ADS-B (RKSO / OSN)
04:55AM 36.3620 127.0011 North 371 427 22,200 -1,500 Descending FlightAware ADS-B (RKSO / OSN)
04:56AM 36.4307 127.0022 358° North 369 425 21,200 -1,500 Descending FlightAware ADS-B (RKSO / OSN)
04:57AM 36.4993 127.0000 358° North 366 421 20,200 -1,380 Descending FlightAware ADS-B (RKSO / OSN)
04:57AM 36.5656 126.9975 358° North 359 413 19,400 -1,200 Descending FlightAware ADS-B (RKSO / OSN)
04:58AM 36.5991 126.9972 North 358 412 19,000 -1,020 Descending FlightAware ADS-B (RKSO / OSN)
04:58AM 36.6631 126.9989 North 350 403 18,400 -720 Descending FlightAware ADS-B (RKSO / OSN)
04:59AM 36.7306 127.0004 North 355 409 18,100 -720 Descending FlightAware ADS-B (RKSO / OSN)
05:00AM 36.7950 127.0022 North 352 405 17,500 -1,020 Descending FlightAware ADS-B (RKSO / OSN)
05:00AM 36.8592 127.0165 23° Northeast 335 386 16,800 -960 Descending FlightAware ADS-B (RKSO / OSN)
05:01AM 36.9087 127.0429 23° Northeast 309 356 16,300 -780 Descending FlightAware ADS-B (RKSO / OSN)
05:02AM 36.9629 127.0712 22° Northeast 302 348 15,800 -960 Descending FlightAware ADS-B (RKSO / OSN)
05:02AM 37.0074 127.0943 23° Northeast 296 341 15,100 -1,020 Descending FlightAware ADS-B (RKSO / OSN)
05:03AM 37.0638 127.1189 North 293 337 14,500 -1,080 Descending FlightAware ADS-B (RKSO / OSN)
05:04AM 37.1142 127.0859 314° West 301 346 13,600 -1,380 Descending FlightAware ADS-B (RKSO / OSN)
05:04AM 37.1284 127.0541 287° West 308 354 13,100 -1,800 Descending FlightAware ADS-B (RKSO / OSN)
05:05AM 37.1374 126.9821 278° West 317 365 11,800 -1,980 Descending FlightAware ADS-B (RKSO / OSN)
05:05AM 37.1461 126.9106 279° West 306 352 10,500 -1,680 Descending FlightAware ADS-B (RKSO / OSN)
05:06AM 37.1555 126.8435 280° West 281 323 9,600 -1,320 Descending FlightAware ADS-B (RKSO / OSN)
05:06AM 37.1601 126.8106 280° West 266 306 9,200 -1,380 Descending FlightAware ADS-B (RKSO / OSN)
05:07AM 37.1640 126.7826 280° West 251 289 8,700 -1,500 Descending FlightAware ADS-B (RKSO / OSN)
05:07AM 37.1679 126.7545 280° West 243 280 8,200 -1,800 Descending FlightAware ADS-B (RKSO / OSN)
05:07AM 37.1725 126.7272 290° West 240 276 7,500 -1,860 Descending FlightAware ADS-B (RKSO / OSN)
05:08AM 37.1850 126.7066 325° Northwest 235 270 7,000 -1,740 Descending FlightAware ADS-B (RKSO / OSN)
05:08AM 37.2012 126.6911 321° Northwest 233 268 6,400 -1,500 Descending FlightAware ADS-B (RKSO / OSN)
05:08AM 37.2201 126.6733 325° Northwest 230 265 6,000 -1,320 Descending FlightAware ADS-B (RKSO / OSN)
05:09AM 37.2379 126.6581 326° Northwest 227 261 5,500 -1,500 Descending FlightAware ADS-B (RKSO / OSN)
05:09AM 37.2547 126.6434 325° Northwest 221 254 5,000 -1,500 Descending FlightAware ADS-B (RKSO / OSN)
05:09AM 37.2712 126.6289 325° Northwest 213 245 4,500 -1,500 Descending FlightAware ADS-B (RKSO / OSN)
05:10AM 37.2879 126.6146 325° Northwest 213 245 4,000 -1,200 Descending FlightAware ADS-B (RKSO / OSN)
05:10AM 37.3036 126.6006 325° Northwest 206 237 3,700 -1,080 Descending FlightAware ADS-B (RKSO / OSN)
05:10AM 37.3189 126.5870 325° Northwest 199 229 3,300 -1,080 Descending FlightAware ADS-B (RKSO / OSN)
05:11AM 37.3342 126.5732 325° Northwest 192 221 3,000 -1,080 Descending FlightAware ADS-B (RKSO / OSN)
05:11AM 37.3470 126.5619 325° Northwest 189 217 2,600 -1,080 Descending FlightAware ADS-B (RKSO / OSN)
05:11AM 37.3614 126.5490 325° Northwest 180 207 2,300 -900 Descending FlightAware ADS-B (RKSO / OSN)
05:14AM 37.4691 126.4505 324° Northwest  Level Estimated
05:15AM 37.4691 126.4505 North  Level Estimated